Time;durP1;ratioP1;P1;durP2;ratioP2;P2;SDS_P1;SDS_P2;PMS_P1;PMS_P2;Temp;Humidity;BMP_temperature;BMP_pressure;BME280_temperature;BME280_humidity;BME280_pressure;Samples;Min_cycle;Max_cycle;Signal;HPM_P1;HPM_P2
2022/01/23 00:02:44;;;;;;;6.43;2.08;;;;;;;11.70;67.49;102657.75;6037018;23;123500;-82
2022/01/23 00:05:14;;;;;;;6.70;2.20;;;;;;;11.77;67.24;102654.16;6038898;23;119936;-82
2022/01/23 00:07:41;;;;;;;8.15;2.70;;;;;;;11.78;67.54;102647.47;6068517;23;120085;-80
2022/01/23 00:10:09;;;;;;;7.65;2.50;;;;;;;11.81;67.49;102655.69;6036787;23;119577;-82
2022/01/23 00:12:42;;;;;;;7.10;2.28;;;;;;;11.83;67.31;102650.59;6038114;23;120290;-81
2022/01/23 00:17:53;;;;;;;7.70;2.67;;;;;;;11.76;67.31;102656.13;6062190;23;119418;-82
2022/01/23 00:20:18;;;;;;;5.88;2.20;;;;;;;11.80;67.04;102662.38;5986936;23;122260;-80
2022/01/23 00:22:51;;;;;;;8.32;2.55;;;;;;;11.76;67.04;102666.34;6037292;23;120229;-82
2022/01/23 00:30:48;;;;;;;6.75;2.10;;;;;;;11.69;67.62;102664.44;6041591;23;122697;-80
2022/01/23 00:33:16;;;;;;;8.80;2.28;;;;;;;11.75;67.93;102673.81;5988982;23;122340;-82
2022/01/23 00:35:45;;;;;;;8.05;2.00;;;;;;;11.75;67.52;102668.31;5989466;23;121671;-80
2022/01/23 00:38:13;;;;;;;8.23;2.03;;;;;;;11.79;67.20;102687.53;6037767;23;119816;-82
2022/01/23 00:40:41;;;;;;;8.02;1.80;;;;;;;11.78;67.33;102688.69;6038343;23;119716;-81
2022/01/23 00:43:14;;;;;;;7.30;1.98;;;;;;;11.76;67.67;102683.63;6036464;23;122819;-81
2022/01/23 00:45:45;;;;;;;9.70;2.28;;;;;;;11.79;67.53;102682.03;5989320;23;119609;-82
2022/01/23 00:48:12;;;;;;;6.82;2.28;;;;;;;11.80;67.51;102680.84;6011950;23;122208;-81
2022/01/23 00:50:40;;;;;;;6.47;2.10;;;;;;;11.79;67.63;102679.28;5989035;23;122891;-81
2022/01/23 00:53:09;;;;;;;8.18;2.53;;;;;;;11.83;67.42;102683.59;6018142;23;120023;-81
2022/01/23 00:55:36;;;;;;;5.88;2.38;;;;;;;11.82;67.62;102683.97;6035457;23;120787;-81
2022/01/23 00:58:02;;;;;;;6.45;2.40;;;;;;;11.85;67.46;102683.94;6062045;23;120471;-82
2022/01/23 01:00:28;;;;;;;8.85;2.70;;;;;;;11.85;67.37;102691.41;6062280;23;119873;-82
2022/01/23 01:02:53;;;;;;;9.18;2.63;;;;;;;11.81;67.50;102679.66;6034417;23;123152;-82
2022/01/23 01:05:19;;;;;;;10.68;2.75;;;;;;;11.81;67.30;102671.41;6011523;23;119791;-82
2022/01/23 01:07:46;;;;;;;9.00;2.75;;;;;;;11.82;67.25;102662.75;5988369;23;121772;-81
2022/01/23 01:10:23;;;;;;;7.95;2.40;;;;;;;11.90;67.51;102679.97;5987171;23;122857;-82
2022/01/23 01:12:50;;;;;;;7.32;2.40;;;;;;;11.86;67.06;102682.75;6040422;23;119771;-83
2022/01/23 01:31:29;;;;;;;;;;;;;;;11.91;67.09;102701.56;6038318;23;122687;-82
2022/01/23 01:34:03;;;;;;;7.63;2.40;;;;;;;11.88;67.04;102698.84;6013667;23;119491;-82
2022/01/23 01:36:45;;;;;;;;;;;;;;;;;;;;;
2022/01/23 01:39:01;;;;;;;11.48;4.70;;;;;;;11.93;66.96;102721.16;6038153;23;119829;-81
2022/01/23 01:41:27;;;;;;;10.07;2.60;;;;;;;11.97;66.90;102721.13;6037737;23;123275;-81
2022/01/23 01:43:54;;;;;;;10.18;3.63;;;;;;;11.97;67.29;102723.88;6012608;23;121830;-82
2022/01/23 01:46:32;;;;;;;5.85;2.63;;;;;;;11.96;67.05;102723.09;6016190;23;120060;-81
2022/01/23 01:48:59;;;;;;;4.95;2.20;;;;;;;11.90;66.98;102710.22;6038067;23;120128;-82
2022/01/23 01:51:30;;;;;;;8.05;2.75;;;;;;;11.94;67.09;102716.44;6012967;23;120107;-84
2022/01/23 01:54:14;;;;;;;8.07;2.70;;;;;;;11.98;66.84;102725.44;6037880;23;119501;-82
2022/01/23 01:56:51;;;;;;;9.70;3.00;;;;;;;11.93;66.68;102712.91;6038344;23;119627;-83
2022/01/23 02:10:36;;;;;;;;;;;;;;;11.93;66.75;102723.91;6038610;23;123081;-82
2022/01/23 02:13:13;;;;;;;10.70;3.60;;;;;;;11.95;66.82;102727.03;6012381;23;123928;-81
2022/01/23 02:55:09;;;;;;;5.47;2.70;;;;;;;11.98;67.18;102728.19;6038043;23;122686;-81
2022/01/23 02:57:22;;;;;;;7.88;2.95;;;;;;;11.98;67.15;102717.19;6007190;23;123571;-82
2022/01/23 02:59:49;;;;;;;6.00;2.78;;;;;;;11.93;67.06;102715.66;5989822;23;119418;-81
2022/01/23 03:02:41;;;;;;;6.32;3.63;;;;;;;11.97;66.96;102716.41;6002806;23;119630;-82
2022/01/23 03:08:15;;;;;;;;;;;;;;;;;;;;;
2022/01/23 03:10:31;;;;;;;4.20;2.65;;;;;;;12.05;67.17;102719.84;6037971;23;120203;-82
2022/01/23 03:31:39;;;;;;;8.90;3.05;;;;;;;11.98;67.02;102725.44;6036779;23;121672;-81
2022/01/23 03:34:05;;;;;;;4.53;2.92;;;;;;;11.97;67.30;102726.63;5992615;23;122798;-81
2022/01/23 03:36:31;;;;;;;7.35;3.15;;;;;;;11.92;67.09;102718.84;5988894;23;121685;-81
2022/01/23 03:38:56;;;;;;;6.57;3.00;;;;;;;12.05;67.13;102739.09;6063481;23;119763;-82
2022/01/23 03:41:22;;;;;;;9.48;3.38;;;;;;;12.01;66.91;102724.63;5988818;23;119927;-81
2022/01/23 03:43:48;;;;;;;8.15;2.97;;;;;;;12.06;66.95;102746.16;6012979;23;119808;-81
2022/01/23 03:51:22;;;;;;;9.32;3.38;;;;;;;12.02;67.28;102745.44;6037703;23;122843;-81
2022/01/23 03:53:50;;;;;;;8.88;3.20;;;;;;;12.02;66.85;102747.41;5988243;23;123126;-80
2022/01/23 03:56:18;;;;;;;8.60;2.33;;;;;;;11.99;67.21;102741.53;5994138;23;119836;-81
2022/01/23 03:58:44;;;;;;;8.15;2.42;;;;;;;11.95;66.86;102737.25;6012854;23;120935;-80
2022/01/23 04:01:16;;;;;;;6.28;2.22;;;;;;;11.99;66.88;102747.03;6037137;23;119975;-80
2022/01/23 04:03:42;;;;;;;5.90;1.98;;;;;;;11.97;67.12;102751.38;6061130;23;121925;-81
2022/01/23 04:06:09;;;;;;;6.25;2.42;;;;;;;11.95;67.53;102756.50;6061678;23;120440;-82
2022/01/23 04:08:36;;;;;;;6.15;2.38;;;;;;;11.99;67.19;102760.00;6038051;23;119497;-81
2022/01/23 04:11:02;;;;;;;6.60;3.08;;;;;;;12.03;67.15;102765.47;6012776;23;120191;-81
2022/01/23 04:13:40;;;;;;;8.95;3.65;;;;;;;12.02;67.14;102750.94;6012278;23;120059;-82
2022/01/23 04:16:27;;;;;;;6.43;3.17;;;;;;;12.01;67.19;102743.88;6037401;23;119343;-81
2022/01/23 04:32:33;;;;;;;;;;;;;;;;;;;;;
2022/01/23 04:45:41;;;;;;;8.75;3.70;;;;;;;11.89;67.43;102742.44;6038588;23;122073;-82
2022/01/23 04:48:52;;;;;;;11.65;4.03;;;;;;;11.95;67.37;102746.28;5991083;23;123383;-81
2022/01/23 05:04:42;;;;;;;8.93;3.72;;;;;;;11.86;67.56;102770.75;6037905;23;123050;-80
2022/01/23 05:07:26;;;;;;;9.40;3.72;;;;;;;11.85;67.67;102758.19;5997344;23;119503;-83
2022/01/23 05:10:08;;;;;;;7.10;3.53;;;;;;;11.79;67.50;102748.03;6037810;23;122611;-81
2022/01/23 05:13:01;;;;;;;6.22;2.92;;;;;;;11.84;67.58;102772.34;6018172;23;119902;-81
2022/01/23 05:15:26;;;;;;;6.13;2.78;;;;;;;11.79;67.25;102761.78;6038510;23;119872;-83
2022/01/23 05:17:52;;;;;;;5.55;2.30;;;;;;;11.78;67.88;102762.94;6036115;23;120499;-82
2022/01/23 05:20:19;;;;;;;3.22;2.20;;;;;;;11.83;67.74;102762.53;6036769;23;120229;-81
2022/01/23 05:22:49;;;;;;;5.35;2.85;;;;;;;11.87;67.64;102768.78;6036770;23;120028;-81
2022/01/23 05:25:22;;;;;;;6.15;2.50;;;;;;;11.89;67.84;102774.66;6036301;23;122607;-82
2022/01/23 05:27:52;;;;;;;5.82;2.67;;;;;;;11.83;67.75;102765.28;6063895;23;120112;-82
2022/01/23 05:30:18;;;;;;;6.90;2.60;;;;;;;11.90;67.59;102776.22;5992963;23;122305;-81
2022/01/23 05:32:46;;;;;;;4.35;2.17;;;;;;;11.83;67.66;102760.59;5988579;23;119881;-82
2022/01/23 05:35:16;;;;;;;4.80;2.40;;;;;;;11.91;67.45;102780.53;6037891;23;122470;-81
2022/01/23 05:37:43;;;;;;;7.57;2.60;;;;;;;11.79;67.58;102761.78;6037721;23;123566;-82
2022/01/23 05:40:16;;;;;;;6.88;2.35;;;;;;;11.79;67.69;102757.06;5990604;23;119593;-82
2022/01/23 05:42:44;;;;;;;9.40;2.30;;;;;;;11.88;67.37;102773.09;5989908;23;122353;-80
2022/01/23 05:45:11;;;;;;;7.68;2.13;;;;;;;11.87;67.58;102768.78;5990034;23;122837;-81
2022/01/23 05:47:55;;;;;;;8.38;2.47;;;;;;;11.87;67.66;102771.53;6042398;23;119946;-82
2022/01/23 05:50:40;;;;;;;4.85;1.92;;;;;;;11.87;67.50;102785.28;6068787;23;119887;-83
2022/01/23 05:53:25;;;;;;;5.10;2.30;;;;;;;11.88;67.61;102787.63;5978731;23;119900;-82
2022/01/23 05:56:16;;;;;;;6.97;2.30;;;;;;;11.77;67.61;102772.38;6043542;23;122068;-83
2022/01/23 05:58:51;;;;;;;7.22;2.42;;;;;;;11.94;67.62;102801.72;6063843;23;120319;-81
2022/01/23 06:01:18;;;;;;;5.05;2.13;;;;;;;11.86;67.54;102786.47;6038596;23;119753;-82
2022/01/23 06:03:46;;;;;;;5.68;2.08;;;;;;;11.98;67.39;102799.69;6037533;23;122195;-82
2022/01/23 06:06:14;;;;;;;7.00;2.13;;;;;;;11.98;67.30;102794.97;5989607;23;123020;-82
2022/01/23 06:08:40;;;;;;;5.15;2.20;;;;;;;11.93;67.26;102795.44;6038439;23;119761;-81
2022/01/23 06:11:05;;;;;;;6.25;2.28;;;;;;;11.95;67.06;102798.56;6062648;23;121464;-81
2022/01/23 06:13:34;;;;;;;6.35;2.40;;;;;;;12.00;66.87;102808.31;6041662;23;122649;-82
2022/01/23 06:16:01;;;;;;;7.10;2.20;;;;;;;11.93;67.11;102798.19;5989800;23;122667;-83
2022/01/23 06:18:27;;;;;;;6.13;2.50;;;;;;;11.95;67.13;102804.06;5989145;23;123625;-83
2022/01/23 06:21:31;;;;;;;7.22;2.47;;;;;;;12.01;67.17;102814.59;5933640;23;119787;-81
2022/01/23 06:26:56;;;;;;;5.57;2.70;;;;;;;11.89;67.20;102800.19;6017380;23;122849;-81
2022/01/23 06:29:24;;;;;;;5.88;2.70;;;;;;;12.01;67.16;102815.38;6037808;23;119846;-82
2022/01/23 06:31:57;;;;;;;6.15;3.28;;;;;;;12.03;67.19;102820.47;6012966;23;122308;-81
2022/01/23 06:34:25;;;;;;;7.03;2.85;;;;;;;12.05;67.02;102821.63;6013116;23;123172;-82
2022/01/23 06:36:52;;;;;;;8.98;2.83;;;;;;;12.00;66.89;102813.81;5994899;23;120287;-82
2022/01/23 06:39:19;;;;;;;10.45;3.13;;;;;;;11.99;66.80;102806.75;5989124;23;123212;-82
2022/01/23 06:41:44;;;;;;;11.93;3.63;;;;;;;12.08;67.02;102826.34;6036918;23;119595;-82
2022/01/23 06:44:33;;;;;;;14.52;4.00;;;;;;;11.92;67.15;102802.13;5977457;23;122842;-82
2022/01/23 06:47:02;;;;;;;9.15;3.25;;;;;;;12.03;66.87;102820.47;6037156;23;119936;-81
2022/01/23 06:49:28;;;;;;;8.20;3.67;;;;;;;12.05;67.02;102821.63;6038072;23;119572;-81
2022/01/23 06:51:53;;;;;;;11.07;3.88;;;;;;;12.09;67.08;102832.63;6036809;23;119540;-82
2022/01/23 06:54:20;;;;;;;7.22;3.40;;;;;;;12.08;66.70;102831.06;5989366;23;123544;-81
2022/01/23 06:56:46;;;;;;;10.50;3.38;;;;;;;12.10;66.85;102839.69;6037996;23;119663;-82
2022/01/23 06:59:12;;;;;;;11.20;3.47;;;;;;;12.09;66.83;102835.38;6042271;23;121799;-81
2022/01/23 07:01:43;;;;;;;10.38;3.55;;;;;;;12.04;67.00;102822.81;6061954;23;119503;-81
2022/01/23 07:04:28;;;;;;;12.40;3.80;;;;;;;12.03;67.06;102831.47;6037842;23;122281;-81
2022/01/23 07:07:10;;;;;;;14.00;4.43;;;;;;;12.04;67.16;102831.06;6036995;23;123372;-81
2022/01/23 07:09:54;;;;;;;9.88;3.83;;;;;;;12.06;67.27;102834.19;6042057;23;119776;-81
2022/01/23 07:12:33;;;;;;;9.50;4.13;;;;;;;12.10;67.18;102839.69;5991605;23;121905;-81
2022/01/23 07:15:22;;;;;;;11.35;4.32;;;;;;;12.05;67.13;102829.09;5964001;23;122692;-82
2022/01/23 07:17:56;;;;;;;11.52;4.43;;;;;;;12.01;67.77;102831.88;6039453;23;119675;-81
2022/01/23 07:20:24;;;;;;;12.93;4.47;;;;;;;12.04;67.50;102842.06;6037602;23;122261;-81
2022/01/23 07:22:52;;;;;;;15.98;5.78;;;;;;;12.07;67.15;102844.03;6040744;23;122794;-81
2022/01/23 07:25:17;;;;;;;25.40;6.50;;;;;;;12.16;66.86;102860.84;5989548;23;122224;-81
2022/01/23 07:27:53;;;;;;;18.48;6.57;;;;;;;12.11;66.91;102864.03;6036742;23;122736;-81
2022/01/23 07:30:36;;;;;;;29.02;6.53;;;;;;;12.15;66.74;102875.78;6037710;23;119575;-82
2022/01/23 07:33:03;;;;;;;24.27;6.47;;;;;;;12.14;66.90;102878.94;6037503;23;119687;-81
2022/01/23 07:35:29;;;;;;;23.88;6.85;;;;;;;12.09;66.78;102871.13;6037108;23;122936;-81
2022/01/23 07:37:55;;;;;;;23.65;6.43;;;;;;;12.13;66.84;102880.91;6013619;23;119517;-81
2022/01/23 07:40:40;;;;;;;25.83;6.63;;;;;;;11.99;66.54;102859.81;6040337;23;119696;-81
2022/01/23 07:43:14;;;;;;;29.85;7.28;;;;;;;12.05;66.14;102879.41;6060565;23;123531;-82
2022/01/23 07:45:59;;;;;;;24.67;6.13;;;;;;;11.99;66.29;102875.53;6021595;23;119361;-82
2022/01/23 07:48:44;;;;;;;23.65;6.00;;;;;;;11.84;66.12;102868.59;6037478;23;120121;-82
2022/01/23 07:51:28;;;;;;;26.17;5.68;;;;;;;11.80;66.04;102873.34;6063466;23;119737;-81
2022/01/23 07:54:01;;;;;;;26.30;6.25;;;;;;;11.87;66.06;102889.78;6014395;23;119772;-82
2022/01/23 07:56:39;;;;;;;25.27;5.00;;;;;;;11.81;65.74;102899.63;6037086;23;123829;-81
2022/01/23 07:59:23;;;;;;;28.63;6.07;;;;;;;11.79;65.95;102893.78;6037525;23;119852;-82
2022/01/23 08:01:58;;;;;;;25.75;5.82;;;;;;;11.76;65.91;102897.31;5992541;23;119310;-81
2022/01/23 08:04:38;;;;;;;20.52;4.80;;;;;;;11.68;65.93;102888.34;6037045;23;122967;-81
2022/01/23 08:07:10;;;;;;;22.80;5.30;;;;;;;11.71;65.91;102895.78;6019171;23;119542;-82
2022/01/23 08:10:02;;;;;;;23.08;5.47;;;;;;;11.64;65.78;102902.13;6042381;23;119975;-84
2022/01/23 08:12:29;;;;;;;24.50;5.55;;;;;;;11.50;65.96;102879.44;6014193;23;119485;-83
2022/01/23 08:14:56;;;;;;;21.95;5.32;;;;;;;11.66;66.10;102905.25;5989988;23;121841;-84
2022/01/23 08:17:25;;;;;;;23.50;5.53;;;;;;;11.58;65.67;102887.22;6064325;23;120332;-84
2022/01/23 08:19:56;;;;;;;22.15;4.90;;;;;;;11.56;65.93;102895.06;6014290;23;119445;-82
2022/01/23 08:22:23;;;;;;;21.08;5.32;;;;;;;11.63;65.83;102916.25;6012849;23;121394;-82
2022/01/23 08:24:51;;;;;;;20.73;5.25;;;;;;;11.57;65.85;102913.13;6013129;23;122597;-83
2022/01/23 08:27:17;;;;;;;19.13;5.20;;;;;;;11.48;65.84;102910.06;6038712;23;119752;-84
2022/01/23 08:29:42;;;;;;;23.60;5.88;;;;;;;11.46;65.71;102912.44;6043156;23;121522;-82
2022/01/23 08:32:09;;;;;;;22.02;5.13;;;;;;;11.53;65.70;102925.34;6037338;23;119798;-81
2022/01/23 08:34:36;;;;;;;21.73;5.38;;;;;;;11.54;65.72;102933.19;6014950;23;119682;-83
2022/01/23 08:37:03;;;;;;;20.67;5.03;;;;;;;11.46;65.90;102926.19;6038478;23;121964;-82
2022/01/23 08:39:31;;;;;;;21.73;5.93;;;;;;;11.57;65.84;102939.84;6038406;23;119634;-83
2022/01/23 08:41:57;;;;;;;18.17;5.32;;;;;;;11.57;65.69;102943.38;6038247;23;121677;-83
2022/01/23 08:44:25;;;;;;;19.00;5.00;;;;;;;11.58;65.82;102941.41;6013591;23;122635;-83
2022/01/23 08:46:52;;;;;;;20.50;5.38;;;;;;;11.56;65.73;102938.28;6064958;23;119753;-83
2022/01/23 08:49:19;;;;;;;26.15;5.50;;;;;;;11.59;65.77;102942.97;6038849;23;119525;-85
2022/01/23 08:51:47;;;;;;;22.13;5.50;;;;;;;11.52;65.62;102924.56;6068981;23;120193;-84
2022/01/23 08:54:13;;;;;;;22.27;5.75;;;;;;;11.60;65.68;102939.84;6039169;23;119255;-84
2022/01/23 08:56:39;;;;;;;23.27;4.90;;;;;;;11.58;65.79;102931.19;6037872;23;119857;-83
2022/01/23 08:59:05;;;;;;;19.77;5.50;;;;;;;11.65;65.75;102941.38;5990207;23;119792;-82
2022/01/23 09:01:33;;;;;;;18.17;5.45;;;;;;;11.66;65.89;102932.72;6038078;23;122383;-82
2022/01/23 09:03:59;;;;;;;11.52;4.88;;;;;;;11.65;65.98;102931.16;6012408;23;123102;-83
2022/01/23 09:06:24;;;;;;;17.35;5.10;;;;;;;11.72;65.93;102937.78;6038067;23;119888;-81
2022/01/23 09:08:51;;;;;;;17.50;5.40;;;;;;;11.67;65.91;102934.28;6038434;23;119699;-83
2022/01/23 09:14:14;;;;;;;23.38;5.88;;;;;;;11.77;66.06;102953.84;5965142;23;120366;-82
2022/01/23 09:16:43;;;;;;;16.17;4.65;;;;;;;11.76;65.86;102944.81;6062090;23;120262;-82
2022/01/23 09:19:10;;;;;;;19.75;5.05;;;;;;;11.84;65.69;102960.16;5989670;23;120102;-83
2022/01/23 09:21:36;;;;;;;17.73;4.55;;;;;;;11.79;65.94;102951.50;6037539;23;121903;-83
2022/01/23 09:24:02;;;;;;;15.88;4.88;;;;;;;11.84;65.69;102953.84;6012247;23;120189;-82
2022/01/23 09:26:28;;;;;;;15.82;4.68;;;;;;;11.91;65.90;102953.81;6038369;23;120052;-82
2022/01/23 09:28:57;;;;;;;17.55;5.05;;;;;;;11.92;65.92;102949.88;6038172;23;121930;-81
2022/01/23 09:31:29;;;;;;;19.00;5.15;;;;;;;12.01;65.84;102957.66;5988323;23;122811;-82
2022/01/23 09:33:55;;;;;;;18.77;4.50;;;;;;;12.04;65.63;102954.09;6064048;23;120033;-82
2022/01/23 09:36:21;;;;;;;17.08;4.60;;;;;;;11.99;65.47;102942.31;6042150;23;121687;-82
2022/01/23 09:38:46;;;;;;;19.98;4.65;;;;;;;12.03;65.34;102945.03;6034387;23;120084;-83
2022/01/23 09:41:16;;;;;;;19.58;5.20;;;;;;;12.13;65.41;102955.19;6014181;23;122870;-83
2022/01/23 09:43:42;;;;;;;14.20;4.70;;;;;;;12.17;65.85;102971.66;6037186;23;124347;-83
2022/01/23 09:46:08;;;;;;;20.90;4.80;;;;;;;12.09;65.72;102953.66;6038855;23;119800;-84
2022/01/23 09:48:34;;;;;;;18.35;4.70;;;;;;;12.20;65.96;102968.88;6038639;23;120338;-82
2022/01/23 09:51:01;;;;;;;14.45;4.05;;;;;;;12.28;66.28;102975.88;6038034;23;120306;-83
2022/01/23 09:53:29;;;;;;;18.67;4.47;;;;;;;12.25;65.54;102962.94;6037319;23;120043;-84
2022/01/23 09:56:03;;;;;;;18.17;4.80;;;;;;;12.35;65.36;102971.53;5994030;23;121895;-83
2022/01/23 09:58:28;;;;;;;18.03;4.50;;;;;;;12.34;64.97;102967.22;6038775;23;120198;-83
2022/01/23 10:00:54;;;;;;;13.18;4.70;;;;;;;12.32;65.04;102966.84;6037852;23;121764;-85
2022/01/23 10:03:20;;;;;;;17.85;4.32;;;;;;;12.35;65.05;102966.81;6037169;23;122899;-85
2022/01/23 10:05:49;;;;;;;16.20;4.80;;;;;;;12.42;65.05;102960.44;6037543;23;119841;-84
2022/01/23 10:08:16;;;;;;;13.13;4.65;;;;;;;12.40;65.37;102960.06;6014352;23;119467;-85
2022/01/23 10:10:42;;;;;;;14.00;3.95;;;;;;;12.38;65.48;102945.94;5988497;23;123433;-82
2022/01/23 10:13:09;;;;;;;14.43;4.20;;;;;;;12.46;65.42;102950.97;6037528;23;119950;-83
2022/01/23 10:15:35;;;;;;;13.27;4.60;;;;;;;12.51;65.44;102958.00;5990315;23;121668;-84
2022/01/23 10:18:01;;;;;;;15.10;4.75;;;;;;;12.56;65.16;102966.59;6068776;23;120385;-83
2022/01/23 10:20:28;;;;;;;17.00;4.80;;;;;;;12.64;64.98;102972.81;6037937;23;119487;-84
2022/01/23 10:22:55;;;;;;;19.83;5.80;;;;;;;12.62;64.30;102966.94;5988476;23;123015;-83
2022/01/23 10:25:29;;;;;;;14.55;4.28;;;;;;;12.67;65.12;102972.00;6013613;23;119521;-82
2022/01/23 10:28:32;;;;;;;14.38;3.95;;;;;;;12.68;65.45;102967.25;6038566;23;122109;-84
2022/01/23 10:31:03;;;;;;;20.10;4.55;;;;;;;12.73;64.74;102981.38;5888335;23;122248;-85
2022/01/23 10:33:34;;;;;;;16.75;4.25;;;;;;;12.75;64.87;102970.72;6009943;23;119694;-82
2022/01/23 10:36:11;;;;;;;14.68;4.45;;;;;;;12.79;64.63;102974.25;6012498;23;121763;-84
2022/01/23 10:38:40;;;;;;;18.95;4.03;;;;;;;12.81;64.59;102982.88;6037746;23;123279;-83
2022/01/23 10:50:05;;;;;;;19.08;4.72;;;;;;;12.90;64.71;102979.63;6037584;23;122194;-85
2022/01/23 10:52:35;;;;;;;16.42;3.92;;;;;;;12.96;64.54;102977.97;6036532;23;123961;-83
2022/01/23 10:55:24;;;;;;;24.20;4.22;;;;;;;13.04;65.60;102979.47;6037807;23;119827;-85
2022/01/23 10:57:53;;;;;;;14.23;3.40;;;;;;;13.15;64.68;102984.84;6012946;23;121982;-84
2022/01/23 11:00:33;;;;;;;13.82;3.10;;;;;;;13.22;64.34;102987.53;6037129;23;123577;-84
2022/01/23 11:03:02;;;;;;;12.60;2.95;;;;;;;13.29;64.04;102979.19;6061704;23;119650;-83
2022/01/23 11:05:36;;;;;;;15.50;3.45;;;;;;;13.29;64.04;102984.69;6041284;23;123085;-83
2022/01/23 11:08:23;;;;;;;16.48;3.67;;;;;;;13.36;63.59;102981.84;6037967;23;119388;-84
2022/01/23 11:10:59;;;;;;;14.80;3.63;;;;;;;13.36;63.39;102984.59;5989448;23;121988;-84
2022/01/23 11:19:20;;;;;;;12.82;2.60;;;;;;;13.59;64.09;102986.66;6037964;23;122427;-84
2022/01/23 11:21:45;;;;;;;10.40;2.67;;;;;;;13.61;63.64;102983.47;5988065;23;121522;-84
2022/01/23 11:24:13;;;;;;;12.63;2.83;;;;;;;13.68;62.78;102991.66;6062483;23;119907;-82
2022/01/23 11:26:39;;;;;;;14.07;2.63;;;;;;;13.58;62.64;102974.06;6013785;23;119732;-84
2022/01/23 11:29:13;;;;;;;11.60;2.78;;;;;;;13.74;62.25;102995.53;6041818;23;122671;-84
2022/01/23 11:31:40;;;;;;;;;;;;;;;13.73;63.06;102988.44;6038378;23;119619;-82
2022/01/23 11:34:07;;;;;;;12.07;2.60;;;;;;;13.76;62.20;102990.38;6061506;23;120049;-84
2022/01/23 11:36:34;;;;;;;9.95;1.98;;;;;;;13.69;62.65;102980.19;6037642;23;119943;-84
2022/01/23 11:39:09;;;;;;;9.15;2.10;;;;;;;13.71;64.08;102979.78;6037556;23;119691;-88
2022/01/23 11:56:38;;;;;;;11.70;2.22;;;;;;;13.88;62.02;102975.19;6036508;23;120419;-83
2022/01/23 11:59:25;;;;;;;8.13;2.33;;;;;;;13.87;61.64;102963.38;5992408;23;120139;-83
2022/01/23 12:02:12;;;;;;;12.13;2.78;;;;;;;13.94;61.90;102976.28;6036782;23;120661;-82
2022/01/23 12:04:39;;;;;;;8.95;2.20;;;;;;;13.92;62.48;102967.66;6011908;23;120129;-83
2022/01/23 12:07:15;;;;;;;9.35;2.90;;;;;;;13.96;62.40;102977.44;6037172;23;120018;-84
2022/01/23 12:09:52;;;;;;;8.75;2.58;;;;;;;14.03;62.91;102971.81;6037321;23;124200;-84
2022/01/23 12:17:21;;;;;;;10.60;2.20;;;;;;;14.10;61.67;102968.94;6037006;23;123322;-83
2022/01/23 12:19:51;;;;;;;10.50;2.78;;;;;;;14.08;61.97;102973.31;6037141;23;120138;-83
2022/01/23 12:22:41;;;;;;;5.50;2.10;;;;;;;14.14;62.79;102975.16;6036693;23;121047;-83
2022/01/23 12:25:16;;;;;;;14.18;2.97;;;;;;;14.12;62.04;102968.50;6036428;23;121367;-84
2022/01/23 12:27:43;;;;;;;7.75;2.25;;;;;;;14.11;61.22;102966.94;5988783;23;119626;-84
2022/01/23 12:30:15;;;;;;;13.63;2.80;;;;;;;14.09;62.27;102969.34;6037072;23;121899;-84
2022/01/23 12:32:41;;;;;;;10.30;2.60;;;;;;;14.06;62.42;102968.22;6035847;23;123426;-83
2022/01/23 12:35:09;;;;;;;14.07;3.22;;;;;;;14.07;61.57;102966.22;6012325;23;120173;-82
2022/01/23 12:37:58;;;;;;;9.60;2.55;;;;;;;14.12;60.67;102969.28;6041386;23;121547;-83
2022/01/23 12:40:33;;;;;;;11.60;3.30;;;;;;;13.97;61.15;102956.94;6012680;23;119653;-85
2022/01/23 12:43:09;;;;;;;15.73;3.58;;;;;;;13.99;61.09;102968.34;6062717;23;119316;-83
2022/01/23 12:46:05;;;;;;;13.90;3.70;;;;;;;13.96;60.63;102966.41;6011691;23;120020;-85
2022/01/23 12:48:34;;;;;;;16.15;4.10;;;;;;;13.91;61.13;102966.09;6037132;23;120098;-83
2022/01/23 12:51:07;;;;;;;15.65;3.90;;;;;;;13.91;60.97;102968.84;6063952;23;119952;-85
2022/01/23 12:53:48;;;;;;;12.57;3.20;;;;;;;13.87;61.58;102968.91;5988977;23;123140;-83
2022/01/23 12:56:20;;;;;;;14.52;3.60;;;;;;;13.81;61.81;102954.03;6038172;23;119614;-85
2022/01/23 12:58:55;;;;;;;13.80;3.42;;;;;;;13.84;61.35;102969.75;6038243;23;121836;-83
2022/01/23 13:01:26;;;;;;;14.15;3.28;;;;;;;13.77;61.98;102965.13;5994557;23;122943;-83
2022/01/23 13:04:02;;;;;;;17.75;3.72;;;;;;;13.75;61.68;102953.72;6013260;23;120648;-86
2022/01/23 13:06:55;;;;;;;18.33;3.53;;;;;;;13.79;61.58;102954.44;6037904;23;123117;-84
2022/01/23 13:30:55;;;;;;;13.48;3.20;;;;;;;13.65;60.37;102965.69;6038529;23;119908;-82
2022/01/23 13:33:24;;;;;;;14.35;3.60;;;;;;;13.52;61.18;102959.19;6037560;23;119615;-84
2022/01/23 13:35:52;;;;;;;16.13;4.47;;;;;;;13.59;62.30;102969.34;6013295;23;120042;-82
2022/01/23 13:38:20;;;;;;;15.55;3.83;;;;;;;13.52;61.58;102956.44;6037822;23;119820;-83
2022/01/23 13:40:46;;;;;;;14.55;4.60;;;;;;;13.60;61.77;102971.66;6038148;23;119674;-83
2022/01/23 14:04:36;;;;;;;16.42;3.33;;;;;;;13.44;61.27;102963.22;6037743;23;123639;-82
2022/01/23 14:07:02;;;;;;;11.27;2.92;;;;;;;13.46;62.12;102969.09;6038144;23;119810;-83
2022/01/23 14:09:27;;;;;;;12.43;3.30;;;;;;;13.50;61.90;102976.16;6064053;23;119899;-83
2022/01/23 14:11:54;;;;;;;13.20;3.03;;;;;;;13.45;62.26;102960.06;5992898;23;123965;-84
2022/01/23 14:14:26;;;;;;;9.65;3.35;;;;;;;13.52;61.68;102982.03;6037891;23;121908;-83
2022/01/23 14:16:55;;;;;;;10.52;3.17;;;;;;;13.51;63.63;102979.69;6037689;23;122751;-83
2022/01/23 14:19:26;;;;;;;14.02;4.13;;;;;;;13.47;61.94;102978.94;6013736;23;119581;-82
2022/01/23 14:22:01;;;;;;;12.77;3.97;;;;;;;13.42;61.09;102982.94;6037897;23;120365;-85
2022/01/23 14:24:29;;;;;;;11.02;4.30;;;;;;;13.36;61.54;102979.09;6013705;23;119870;-83
2022/01/23 14:27:06;;;;;;;11.05;3.30;;;;;;;13.25;61.92;102970.19;6037707;23;119703;-83
2022/01/23 14:30:08;;;;;;;12.45;3.03;;;;;;;13.25;61.35;102983.16;6038065;23;121707;-82
2022/01/23 14:32:45;;;;;;;11.20;2.70;;;;;;;13.13;62.71;102959.66;5890727;23;120536;-82
2022/01/23 14:35:17;;;;;;;10.52;2.88;;;;;;;13.23;62.01;102969.78;6015399;23;123337;-82
2022/01/23 14:37:46;;;;;;;7.97;2.83;;;;;;;13.22;63.88;102965.47;6036282;23;120300;-84
2022/01/23 14:40:13;;;;;;;8.63;3.03;;;;;;;13.19;61.84;102969.06;6063937;23;119953;-82
2022/01/23 14:42:39;;;;;;;10.27;3.20;;;;;;;13.21;61.68;102974.94;6012882;23;120029;-82
2022/01/23 14:45:07;;;;;;;9.20;3.30;;;;;;;13.10;62.23;102963.25;6036951;23;122755;-82
2022/01/23 14:47:38;;;;;;;10.70;3.28;;;;;;;13.13;61.31;102974.22;6014191;23;120069;-82
2022/01/23 14:50:11;;;;;;;13.10;4.20;;;;;;;13.09;61.42;102976.25;6014137;23;122278;-84
2022/01/23 14:52:40;;;;;;;14.30;6.85;;;;;;;13.06;61.54;102971.56;6061094;23;123268;-82
2022/01/23 14:55:08;;;;;;;12.27;3.65;;;;;;;13.02;61.88;102981.84;6042728;23;119442;-81
2022/01/23 14:57:35;;;;;;;12.68;3.28;;;;;;;13.05;61.49;102980.25;6063601;23;119884;-82
2022/01/23 15:00:06;;;;;;;10.43;3.55;;;;;;;13.01;61.44;102973.97;6064504;23;119458;-83
2022/01/23 15:02:32;;;;;;;10.68;3.35;;;;;;;13.00;61.65;102978.69;6013488;23;121865;-84
2022/01/23 15:05:02;;;;;;;11.15;4.28;;;;;;;12.97;61.74;102974.03;6063420;23;120780;-84
2022/01/23 15:07:37;;;;;;;10.48;3.67;;;;;;;13.01;61.82;102982.25;6037720;23;119442;-85
2022/01/23 15:10:05;;;;;;;12.23;3.85;;;;;;;12.95;62.35;102978.38;6038130;23;119884;-83
2022/01/23 15:12:30;;;;;;;12.10;3.75;;;;;;;12.95;62.74;102981.13;6035874;23;120342;-82
2022/01/23 15:14:56;;;;;;;11.40;4.22;;;;;;;12.97;62.07;102976.78;6038474;23;119755;-84
2022/01/23 15:17:22;;;;;;;12.48;4.28;;;;;;;13.01;62.20;102990.50;6066859;23;121692;-83
2022/01/23 15:19:48;;;;;;;13.75;6.60;;;;;;;12.88;62.00;102965.47;6038434;23;119754;-85